sensor_id;sensor_type;location;lat;lon;timestamp;P1;durP1;ratioP1;P2;durP2;ratioP2
18376;SDS011;9315;52.624;13.544;2024-03-08T00:00:12;27.70;;;13.37;;
18376;SDS011;9315;52.624;13.544;2024-03-08T00:02:45;29.03;;;13.50;;
18376;SDS011;9315;52.624;13.544;2024-03-08T00:05:14;28.43;;;13.80;;
18376;SDS011;9315;52.624;13.544;2024-03-08T00:07:42;27.27;;;13.17;;
18376;SDS011;9315;52.624;13.544;2024-03-08T00:10:10;30.17;;;14.10;;
18376;SDS011;9315;52.624;13.544;2024-03-08T00:12:41;32.87;;;14.83;;
18376;SDS011;9315;52.624;13.544;2024-03-08T00:15:30;28.70;;;13.30;;
18376;SDS011;9315;52.624;13.544;2024-03-08T00:17:58;28.07;;;13.97;;
18376;SDS011;9315;52.624;13.544;2024-03-08T00:20:26;32.63;;;14.50;;
18376;SDS011;9315;52.624;13.544;2024-03-08T00:22:55;30.30;;;14.67;;
18376;SDS011;9315;52.624;13.544;2024-03-08T00:25:24;30.53;;;13.70;;
18376;SDS011;9315;52.624;13.544;2024-03-08T00:27:52;29.40;;;14.30;;
18376;SDS011;9315;52.624;13.544;2024-03-08T00:30:22;30.80;;;15.10;;
18376;SDS011;9315;52.624;13.544;2024-03-08T00:32:51;35.17;;;15.33;;
18376;SDS011;9315;52.624;13.544;2024-03-08T00:35:19;31.27;;;15.57;;
18376;SDS011;9315;52.624;13.544;2024-03-08T00:37:46;31.07;;;14.33;;
18376;SDS011;9315;52.624;13.544;2024-03-08T00:40:14;29.47;;;14.67;;
18376;SDS011;9315;52.624;13.544;2024-03-08T00:42:41;32.13;;;13.97;;
18376;SDS011;9315;52.624;13.544;2024-03-08T00:45:10;31.47;;;13.93;;
18376;SDS011;9315;52.624;13.544;2024-03-08T00:47:38;34.37;;;15.17;;
18376;SDS011;9315;52.624;13.544;2024-03-08T00:50:06;34.83;;;14.80;;
18376;SDS011;9315;52.624;13.544;2024-03-08T00:52:35;29.40;;;13.90;;
18376;SDS011;9315;52.624;13.544;2024-03-08T00:55:04;28.33;;;13.83;;
18376;SDS011;9315;52.624;13.544;2024-03-08T00:57:32;30.03;;;13.93;;
18376;SDS011;9315;52.624;13.544;2024-03-08T01:00:02;35.97;;;15.73;;
18376;SDS011;9315;52.624;13.544;2024-03-08T01:02:36;30.60;;;14.63;;
18376;SDS011;9315;52.624;13.544;2024-03-08T01:05:05;32.50;;;14.07;;
18376;SDS011;9315;52.624;13.544;2024-03-08T01:07:36;25.63;;;14.20;;
18376;SDS011;9315;52.624;13.544;2024-03-08T01:10:03;27.40;;;13.47;;
18376;SDS011;9315;52.624;13.544;2024-03-08T01:12:40;33.00;;;14.53;;
18376;SDS011;9315;52.624;13.544;2024-03-08T01:15:09;30.23;;;14.53;;
18376;SDS011;9315;52.624;13.544;2024-03-08T01:17:37;32.43;;;15.70;;
18376;SDS011;9315;52.624;13.544;2024-03-08T01:20:05;30.43;;;14.43;;
18376;SDS011;9315;52.624;13.544;2024-03-08T01:22:36;32.23;;;14.73;;
18376;SDS011;9315;52.624;13.544;2024-03-08T01:25:03;31.13;;;15.73;;
18376;SDS011;9315;52.624;13.544;2024-03-08T01:27:31;29.87;;;14.57;;
18376;SDS011;9315;52.624;13.544;2024-03-08T01:29:59;30.47;;;15.03;;
18376;SDS011;9315;52.624;13.544;2024-03-08T01:32:26;34.87;;;15.30;;
18376;SDS011;9315;52.624;13.544;2024-03-08T01:34:54;30.60;;;14.93;;
18376;SDS011;9315;52.624;13.544;2024-03-08T01:37:23;36.63;;;14.93;;
18376;SDS011;9315;52.624;13.544;2024-03-08T01:39:50;27.93;;;13.73;;
18376;SDS011;9315;52.624;13.544;2024-03-08T01:42:18;30.50;;;14.87;;
18376;SDS011;9315;52.624;13.544;2024-03-08T01:44:46;30.63;;;15.07;;
18376;SDS011;9315;52.624;13.544;2024-03-08T01:47:13;31.63;;;14.27;;
18376;SDS011;9315;52.624;13.544;2024-03-08T01:49:41;34.17;;;15.83;;
18376;SDS011;9315;52.624;13.544;2024-03-08T01:52:08;34.13;;;15.77;;
18376;SDS011;9315;52.624;13.544;2024-03-08T01:54:36;34.03;;;15.90;;
18376;SDS011;9315;52.624;13.544;2024-03-08T01:57:04;33.23;;;15.57;;
18376;SDS011;9315;52.624;13.544;2024-03-08T01:59:32;34.70;;;15.23;;
18376;SDS011;9315;52.624;13.544;2024-03-08T02:02:00;32.87;;;15.00;;
18376;SDS011;9315;52.624;13.544;2024-03-08T02:04:32;31.20;;;15.53;;
18376;SDS011;9315;52.624;13.544;2024-03-08T02:07:00;32.67;;;16.20;;
18376;SDS011;9315;52.624;13.544;2024-03-08T02:09:27;33.37;;;16.07;;
18376;SDS011;9315;52.624;13.544;2024-03-08T02:11:55;32.30;;;15.70;;
18376;SDS011;9315;52.624;13.544;2024-03-08T02:14:24;35.03;;;16.87;;
18376;SDS011;9315;52.624;13.544;2024-03-08T02:16:51;32.47;;;15.37;;
18376;SDS011;9315;52.624;13.544;2024-03-08T02:19:18;34.67;;;15.87;;
18376;SDS011;9315;52.624;13.544;2024-03-08T02:21:46;34.37;;;15.70;;
18376;SDS011;9315;52.624;13.544;2024-03-08T02:24:14;33.33;;;15.93;;
18376;SDS011;9315;52.624;13.544;2024-03-08T02:26:43;37.47;;;16.77;;
18376;SDS011;9315;52.624;13.544;2024-03-08T02:29:11;34.57;;;16.03;;
18376;SDS011;9315;52.624;13.544;2024-03-08T02:31:39;35.30;;;16.40;;
18376;SDS011;9315;52.624;13.544;2024-03-08T02:34:07;36.10;;;16.50;;
18376;SDS011;9315;52.624;13.544;2024-03-08T02:36:34;35.33;;;17.07;;
18376;SDS011;9315;52.624;13.544;2024-03-08T02:39:02;34.93;;;16.00;;
18376;SDS011;9315;52.624;13.544;2024-03-08T02:41:31;36.43;;;16.87;;
18376;SDS011;9315;52.624;13.544;2024-03-08T02:43:59;35.97;;;16.17;;
18376;SDS011;9315;52.624;13.544;2024-03-08T02:46:27;35.57;;;16.47;;
18376;SDS011;9315;52.624;13.544;2024-03-08T02:48:54;34.80;;;16.70;;
18376;SDS011;9315;52.624;13.544;2024-03-08T02:51:22;40.33;;;16.27;;
18376;SDS011;9315;52.624;13.544;2024-03-08T02:53:49;36.87;;;16.80;;
18376;SDS011;9315;52.624;13.544;2024-03-08T02:56:18;34.87;;;16.00;;
18376;SDS011;9315;52.624;13.544;2024-03-08T02:58:46;35.60;;;16.37;;
18376;SDS011;9315;52.624;13.544;2024-03-08T03:01:15;40.33;;;17.37;;
18376;SDS011;9315;52.624;13.544;2024-03-08T03:03:44;35.53;;;17.10;;
18376;SDS011;9315;52.624;13.544;2024-03-08T03:06:13;38.73;;;17.90;;
18376;SDS011;9315;52.624;13.544;2024-03-08T03:08:42;41.53;;;17.33;;
18376;SDS011;9315;52.624;13.544;2024-03-08T03:11:12;38.37;;;18.17;;
18376;SDS011;9315;52.624;13.544;2024-03-08T03:13:43;37.53;;;17.10;;
18376;SDS011;9315;52.624;13.544;2024-03-08T03:16:18;40.40;;;17.60;;
18376;SDS011;9315;52.624;13.544;2024-03-08T03:18:46;41.53;;;17.67;;
18376;SDS011;9315;52.624;13.544;2024-03-08T03:21:14;36.30;;;15.90;;
18376;SDS011;9315;52.624;13.544;2024-03-08T03:23:42;39.37;;;17.07;;
18376;SDS011;9315;52.624;13.544;2024-03-08T03:26:10;37.60;;;16.33;;
18376;SDS011;9315;52.624;13.544;2024-03-08T03:28:39;38.87;;;17.30;;
18376;SDS011;9315;52.624;13.544;2024-03-08T03:31:06;38.57;;;17.57;;
18376;SDS011;9315;52.624;13.544;2024-03-08T03:33:35;35.67;;;17.03;;
18376;SDS011;9315;52.624;13.544;2024-03-08T03:36:03;40.53;;;16.10;;
18376;SDS011;9315;52.624;13.544;2024-03-08T03:38:36;42.47;;;17.43;;
18376;SDS011;9315;52.624;13.544;2024-03-08T03:41:04;40.73;;;17.33;;
18376;SDS011;9315;52.624;13.544;2024-03-08T03:43:37;35.17;;;17.17;;
18376;SDS011;9315;52.624;13.544;2024-03-08T03:46:06;38.03;;;16.83;;
18376;SDS011;9315;52.624;13.544;2024-03-08T03:48:39;38.73;;;18.03;;
18376;SDS011;9315;52.624;13.544;2024-03-08T03:51:09;36.97;;;17.43;;
18376;SDS011;9315;52.624;13.544;2024-03-08T03:53:37;43.70;;;17.53;;
18376;SDS011;9315;52.624;13.544;2024-03-08T03:56:05;43.17;;;18.37;;
18376;SDS011;9315;52.624;13.544;2024-03-08T03:58:33;40.07;;;18.07;;
18376;SDS011;9315;52.624;13.544;2024-03-08T04:01:01;41.97;;;18.57;;
18376;SDS011;9315;52.624;13.544;2024-03-08T04:03:31;43.37;;;17.87;;
18376;SDS011;9315;52.624;13.544;2024-03-08T04:05:59;36.80;;;17.30;;
18376;SDS011;9315;52.624;13.544;2024-03-08T04:08:27;39.37;;;17.07;;
18376;SDS011;9315;52.624;13.544;2024-03-08T04:10:55;40.90;;;17.67;;
18376;SDS011;9315;52.624;13.544;2024-03-08T04:13:22;42.70;;;19.17;;
18376;SDS011;9315;52.624;13.544;2024-03-08T04:15:49;38.83;;;18.13;;
18376;SDS011;9315;52.624;13.544;2024-03-08T04:18:17;43.33;;;17.33;;
18376;SDS011;9315;52.624;13.544;2024-03-08T04:20:45;41.27;;;18.23;;
18376;SDS011;9315;52.624;13.544;2024-03-08T04:23:14;36.83;;;17.07;;
18376;SDS011;9315;52.624;13.544;2024-03-08T04:25:43;36.40;;;17.97;;
18376;SDS011;9315;52.624;13.544;2024-03-08T04:28:10;41.57;;;18.63;;
18376;SDS011;9315;52.624;13.544;2024-03-08T04:30:41;40.80;;;19.27;;
18376;SDS011;9315;52.624;13.544;2024-03-08T04:33:09;39.23;;;17.73;;
18376;SDS011;9315;52.624;13.544;2024-03-08T04:35:37;40.43;;;17.80;;
18376;SDS011;9315;52.624;13.544;2024-03-08T04:38:05;40.87;;;18.50;;
18376;SDS011;9315;52.624;13.544;2024-03-08T04:40:32;40.17;;;18.20;;
18376;SDS011;9315;52.624;13.544;2024-03-08T04:43:01;39.00;;;18.10;;
18376;SDS011;9315;52.624;13.544;2024-03-08T04:45:29;44.23;;;18.00;;
18376;SDS011;9315;52.624;13.544;2024-03-08T04:47:56;40.50;;;16.53;;
18376;SDS011;9315;52.624;13.544;2024-03-08T04:50:24;40.80;;;19.27;;
18376;SDS011;9315;52.624;13.544;2024-03-08T04:52:51;42.70;;;19.20;;
18376;SDS011;9315;52.624;13.544;2024-03-08T04:55:19;39.50;;;18.40;;
18376;SDS011;9315;52.624;13.544;2024-03-08T04:57:47;43.10;;;18.50;;
18376;SDS011;9315;52.624;13.544;2024-03-08T05:00:15;42.07;;;18.77;;
18376;SDS011;9315;52.624;13.544;2024-03-08T05:02:43;39.10;;;18.13;;
18376;SDS011;9315;52.624;13.544;2024-03-08T05:05:11;42.10;;;18.97;;
18376;SDS011;9315;52.624;13.544;2024-03-08T05:07:39;38.47;;;18.67;;
18376;SDS011;9315;52.624;13.544;2024-03-08T05:10:07;41.97;;;18.97;;
18376;SDS011;9315;52.624;13.544;2024-03-08T05:12:35;42.17;;;18.17;;
18376;SDS011;9315;52.624;13.544;2024-03-08T05:15:03;39.67;;;17.73;;
18376;SDS011;9315;52.624;13.544;2024-03-08T05:17:32;41.07;;;18.23;;
18376;SDS011;9315;52.624;13.544;2024-03-08T05:19:59;43.47;;;18.20;;
18376;SDS011;9315;52.624;13.544;2024-03-08T05:22:27;37.07;;;17.27;;
18376;SDS011;9315;52.624;13.544;2024-03-08T05:24:54;44.13;;;19.27;;
18376;SDS011;9315;52.624;13.544;2024-03-08T05:27:22;38.83;;;17.67;;
18376;SDS011;9315;52.624;13.544;2024-03-08T05:29:51;49.37;;;19.57;;
18376;SDS011;9315;52.624;13.544;2024-03-08T05:32:19;41.67;;;18.00;;
18376;SDS011;9315;52.624;13.544;2024-03-08T05:34:46;36.33;;;17.77;;
18376;SDS011;9315;52.624;13.544;2024-03-08T05:37:14;41.20;;;18.50;;
18376;SDS011;9315;52.624;13.544;2024-03-08T05:39:42;41.00;;;18.07;;
18376;SDS011;9315;52.624;13.544;2024-03-08T05:42:11;44.97;;;18.13;;
18376;SDS011;9315;52.624;13.544;2024-03-08T05:44:39;44.43;;;19.90;;
18376;SDS011;9315;52.624;13.544;2024-03-08T05:47:07;43.57;;;18.97;;
18376;SDS011;9315;52.624;13.544;2024-03-08T05:49:34;42.03;;;19.03;;
18376;SDS011;9315;52.624;13.544;2024-03-08T05:52:01;40.83;;;18.50;;
18376;SDS011;9315;52.624;13.544;2024-03-08T05:54:29;40.87;;;18.53;;
18376;SDS011;9315;52.624;13.544;2024-03-08T05:56:58;42.13;;;18.73;;
18376;SDS011;9315;52.624;13.544;2024-03-08T05:59:25;41.33;;;18.87;;
18376;SDS011;9315;52.624;13.544;2024-03-08T06:01:54;39.73;;;18.60;;
18376;SDS011;9315;52.624;13.544;2024-03-08T06:04:23;43.30;;;18.77;;
18376;SDS011;9315;52.624;13.544;2024-03-08T06:06:51;38.93;;;18.30;;
18376;SDS011;9315;52.624;13.544;2024-03-08T06:09:22;40.67;;;17.77;;
18376;SDS011;9315;52.624;13.544;2024-03-08T06:11:51;41.43;;;18.03;;
18376;SDS011;9315;52.624;13.544;2024-03-08T06:14:22;44.23;;;19.50;;
18376;SDS011;9315;52.624;13.544;2024-03-08T06:16:50;40.97;;;18.03;;
18376;SDS011;9315;52.624;13.544;2024-03-08T06:19:19;40.10;;;18.63;;
18376;SDS011;9315;52.624;13.544;2024-03-08T06:21:46;38.97;;;18.33;;
18376;SDS011;9315;52.624;13.544;2024-03-08T06:24:13;42.07;;;19.63;;
18376;SDS011;9315;52.624;13.544;2024-03-08T06:26:44;40.60;;;17.97;;
18376;SDS011;9315;52.624;13.544;2024-03-08T06:29:12;42.50;;;18.83;;
18376;SDS011;9315;52.624;13.544;2024-03-08T06:31:39;42.30;;;18.50;;
18376;SDS011;9315;52.624;13.544;2024-03-08T06:34:07;40.87;;;18.37;;
18376;SDS011;9315;52.624;13.544;2024-03-08T06:36:35;44.83;;;19.20;;
18376;SDS011;9315;52.624;13.544;2024-03-08T06:39:05;45.00;;;18.67;;
18376;SDS011;9315;52.624;13.544;2024-03-08T06:41:36;37.37;;;17.97;;
18376;SDS011;9315;52.624;13.544;2024-03-08T06:44:04;41.57;;;19.57;;
18376;SDS011;9315;52.624;13.544;2024-03-08T06:46:33;37.07;;;17.63;;
18376;SDS011;9315;52.624;13.544;2024-03-08T06:49:01;40.60;;;18.87;;
18376;SDS011;9315;52.624;13.544;2024-03-08T06:51:30;38.13;;;18.60;;
18376;SDS011;9315;52.624;13.544;2024-03-08T06:53:59;46.87;;;20.80;;
18376;SDS011;9315;52.624;13.544;2024-03-08T06:56:26;40.23;;;19.40;;
18376;SDS011;9315;52.624;13.544;2024-03-08T06:58:54;42.93;;;19.73;;
18376;SDS011;9315;52.624;13.544;2024-03-08T07:01:21;44.87;;;20.53;;
18376;SDS011;9315;52.624;13.544;2024-03-08T07:03:50;48.27;;;20.87;;
18376;SDS011;9315;52.624;13.544;2024-03-08T07:06:19;44.47;;;18.63;;
18376;SDS011;9315;52.624;13.544;2024-03-08T07:08:47;45.87;;;19.77;;
18376;SDS011;9315;52.624;13.544;2024-03-08T07:11:15;40.17;;;18.77;;
18376;SDS011;9315;52.624;13.544;2024-03-08T07:13:45;43.13;;;20.90;;
18376;SDS011;9315;52.624;13.544;2024-03-08T07:16:13;44.10;;;21.33;;
18376;SDS011;9315;52.624;13.544;2024-03-08T07:18:40;44.27;;;20.23;;
18376;SDS011;9315;52.624;13.544;2024-03-08T07:21:10;41.77;;;19.73;;
18376;SDS011;9315;52.624;13.544;2024-03-08T07:23:38;48.47;;;21.10;;
18376;SDS011;9315;52.624;13.544;2024-03-08T07:26:24;39.27;;;19.53;;
18376;SDS011;9315;52.624;13.544;2024-03-08T07:28:51;43.03;;;19.90;;
18376;SDS011;9315;52.624;13.544;2024-03-08T07:31:21;44.33;;;20.93;;
18376;SDS011;9315;52.624;13.544;2024-03-08T07:33:52;45.13;;;21.07;;
18376;SDS011;9315;52.624;13.544;2024-03-08T07:36:22;46.83;;;21.17;;
18376;SDS011;9315;52.624;13.544;2024-03-08T07:38:50;47.13;;;21.67;;
18376;SDS011;9315;52.624;13.544;2024-03-08T07:41:17;42.03;;;20.60;;
18376;SDS011;9315;52.624;13.544;2024-03-08T07:43:45;39.27;;;18.83;;
18376;SDS011;9315;52.624;13.544;2024-03-08T07:46:13;40.83;;;20.43;;
18376;SDS011;9315;52.624;13.544;2024-03-08T07:48:40;37.50;;;18.77;;
18376;SDS011;9315;52.624;13.544;2024-03-08T07:51:09;41.40;;;19.63;;
18376;SDS011;9315;52.624;13.544;2024-03-08T07:53:38;37.73;;;17.97;;
18376;SDS011;9315;52.624;13.544;2024-03-08T07:56:08;34.20;;;17.67;;
18376;SDS011;9315;52.624;13.544;2024-03-08T07:58:39;37.70;;;18.47;;
18376;SDS011;9315;52.624;13.544;2024-03-08T08:01:16;36.77;;;18.90;;
18376;SDS011;9315;52.624;13.544;2024-03-08T08:03:45;32.47;;;17.40;;
18376;SDS011;9315;52.624;13.544;2024-03-08T08:06:17;34.53;;;17.47;;
18376;SDS011;9315;52.624;13.544;2024-03-08T08:08:44;38.03;;;18.37;;
18376;SDS011;9315;52.624;13.544;2024-03-08T08:11:12;34.83;;;18.43;;
18376;SDS011;9315;52.624;13.544;2024-03-08T08:13:41;35.97;;;18.17;;
18376;SDS011;9315;52.624;13.544;2024-03-08T08:16:09;35.20;;;17.50;;
18376;SDS011;9315;52.624;13.544;2024-03-08T08:18:37;38.70;;;18.40;;
18376;SDS011;9315;52.624;13.544;2024-03-08T08:21:05;36.67;;;17.63;;
18376;SDS011;9315;52.624;13.544;2024-03-08T08:23:33;35.60;;;17.60;;
18376;SDS011;9315;52.624;13.544;2024-03-08T08:26:01;34.73;;;16.80;;
18376;SDS011;9315;52.624;13.544;2024-03-08T08:28:31;35.43;;;17.37;;
18376;SDS011;9315;52.624;13.544;2024-03-08T08:30:58;34.27;;;17.90;;
18376;SDS011;9315;52.624;13.544;2024-03-08T08:33:27;34.97;;;18.33;;
18376;SDS011;9315;52.624;13.544;2024-03-08T08:35:55;31.60;;;16.23;;
18376;SDS011;9315;52.624;13.544;2024-03-08T08:38:23;35.70;;;18.07;;
18376;SDS011;9315;52.624;13.544;2024-03-08T08:40:51;37.37;;;17.50;;
18376;SDS011;9315;52.624;13.544;2024-03-08T08:43:20;35.07;;;17.67;;
18376;SDS011;9315;52.624;13.544;2024-03-08T08:45:50;36.03;;;17.37;;
18376;SDS011;9315;52.624;13.544;2024-03-08T08:48:21;35.23;;;17.60;;
18376;SDS011;9315;52.624;13.544;2024-03-08T08:50:48;29.90;;;16.83;;
18376;SDS011;9315;52.624;13.544;2024-03-08T08:53:17;34.93;;;17.17;;
18376;SDS011;9315;52.624;13.544;2024-03-08T08:55:45;35.30;;;17.77;;
18376;SDS011;9315;52.624;13.544;2024-03-08T08:58:13;33.37;;;17.37;;
18376;SDS011;9315;52.624;13.544;2024-03-08T09:00:41;34.03;;;17.83;;
18376;SDS011;9315;52.624;13.544;2024-03-08T09:03:11;31.87;;;17.37;;
18376;SDS011;9315;52.624;13.544;2024-03-08T09:05:39;32.60;;;18.07;;
18376;SDS011;9315;52.624;13.544;2024-03-08T09:08:11;30.10;;;16.47;;
18376;SDS011;9315;52.624;13.544;2024-03-08T09:10:39;29.93;;;16.77;;
18376;SDS011;9315;52.624;13.544;2024-03-08T09:13:07;31.80;;;16.97;;
18376;SDS011;9315;52.624;13.544;2024-03-08T09:15:43;31.23;;;17.70;;
18376;SDS011;9315;52.624;13.544;2024-03-08T09:18:11;30.87;;;16.40;;
18376;SDS011;9315;52.624;13.544;2024-03-08T09:20:38;31.17;;;17.20;;
18376;SDS011;9315;52.624;13.544;2024-03-08T09:23:07;34.87;;;16.43;;
18376;SDS011;9315;52.624;13.544;2024-03-08T09:25:35;30.23;;;17.23;;
18376;SDS011;9315;52.624;13.544;2024-03-08T09:28:03;28.30;;;15.87;;
18376;SDS011;9315;52.624;13.544;2024-03-08T09:30:32;34.70;;;16.50;;
18376;SDS011;9315;52.624;13.544;2024-03-08T09:33:01;33.13;;;17.20;;
18376;SDS011;9315;52.624;13.544;2024-03-08T09:35:29;31.93;;;17.67;;
18376;SDS011;9315;52.624;13.544;2024-03-08T09:37:57;30.03;;;17.37;;
18376;SDS011;9315;52.624;13.544;2024-03-08T09:40:24;29.53;;;15.63;;
18376;SDS011;9315;52.624;13.544;2024-03-08T09:42:53;32.33;;;16.37;;
18376;SDS011;9315;52.624;13.544;2024-03-08T09:45:22;31.80;;;16.73;;
18376;SDS011;9315;52.624;13.544;2024-03-08T09:47:50;29.70;;;17.07;;
18376;SDS011;9315;52.624;13.544;2024-03-08T09:50:18;31.13;;;17.43;;
18376;SDS011;9315;52.624;13.544;2024-03-08T09:52:48;31.37;;;16.77;;
18376;SDS011;9315;52.624;13.544;2024-03-08T09:55:17;31.60;;;15.90;;
18376;SDS011;9315;52.624;13.544;2024-03-08T09:57:49;30.10;;;16.13;;
18376;SDS011;9315;52.624;13.544;2024-03-08T10:00:38;27.97;;;15.83;;
18376;SDS011;9315;52.624;13.544;2024-03-08T10:03:05;30.17;;;15.47;;
18376;SDS011;9315;52.624;13.544;2024-03-08T10:05:33;29.73;;;16.40;;
18376;SDS011;9315;52.624;13.544;2024-03-08T10:08:02;28.37;;;15.73;;
18376;SDS011;9315;52.624;13.544;2024-03-08T10:10:33;30.73;;;17.37;;
18376;SDS011;9315;52.624;13.544;2024-03-08T10:13:05;30.47;;;16.80;;
18376;SDS011;9315;52.624;13.544;2024-03-08T10:15:34;29.33;;;15.97;;
18376;SDS011;9315;52.624;13.544;2024-03-08T10:18:03;25.07;;;15.00;;
18376;SDS011;9315;52.624;13.544;2024-03-08T10:20:30;26.77;;;15.43;;
18376;SDS011;9315;52.624;13.544;2024-03-08T10:23:02;25.63;;;14.50;;
18376;SDS011;9315;52.624;13.544;2024-03-08T10:25:37;27.87;;;15.87;;
18376;SDS011;9315;52.624;13.544;2024-03-08T10:28:05;27.10;;;15.47;;
18376;SDS011;9315;52.624;13.544;2024-03-08T10:30:33;25.00;;;15.00;;
18376;SDS011;9315;52.624;13.544;2024-03-08T10:33:01;27.53;;;15.53;;
18376;SDS011;9315;52.624;13.544;2024-03-08T10:35:32;26.00;;;14.93;;
18376;SDS011;9315;52.624;13.544;2024-03-08T10:37:59;26.10;;;15.80;;
18376;SDS011;9315;52.624;13.544;2024-03-08T10:40:34;29.00;;;15.47;;
18376;SDS011;9315;52.624;13.544;2024-03-08T10:43:06;25.50;;;15.27;;
18376;SDS011;9315;52.624;13.544;2024-03-08T10:45:56;27.27;;;15.43;;
18376;SDS011;9315;52.624;13.544;2024-03-08T10:49:31;30.90;;;16.00;;
18376;SDS011;9315;52.624;13.544;2024-03-08T10:52:14;24.87;;;15.10;;
18376;SDS011;9315;52.624;13.544;2024-03-08T10:54:44;26.80;;;14.53;;
18376;SDS011;9315;52.624;13.544;2024-03-08T10:57:14;29.03;;;15.23;;
18376;SDS011;9315;52.624;13.544;2024-03-08T10:59:47;24.27;;;14.20;;
18376;SDS011;9315;52.624;13.544;2024-03-08T11:02:16;24.00;;;13.63;;
18376;SDS011;9315;52.624;13.544;2024-03-08T11:04:47;29.57;;;14.63;;
18376;SDS011;9315;52.624;13.544;2024-03-08T11:07:17;26.10;;;14.13;;
18376;SDS011;9315;52.624;13.544;2024-03-08T11:09:47;25.40;;;14.33;;
18376;SDS011;9315;52.624;13.544;2024-03-08T11:14:47;24.57;;;13.37;;
18376;SDS011;9315;52.624;13.544;2024-03-08T11:22:47;25.07;;;13.07;;
18376;SDS011;9315;52.624;13.544;2024-03-08T11:25:33;23.47;;;13.77;;
18376;SDS011;9315;52.624;13.544;2024-03-08T11:28:17;25.30;;;13.40;;
18376;SDS011;9315;52.624;13.544;2024-03-08T11:33:27;20.80;;;12.20;;
18376;SDS011;9315;52.624;13.544;2024-03-08T11:38:41;21.33;;;12.40;;
18376;SDS011;9315;52.624;13.544;2024-03-08T11:41:19;24.33;;;13.57;;
18376;SDS011;9315;52.624;13.544;2024-03-08T11:43:50;22.40;;;11.87;;
18376;SDS011;9315;52.624;13.544;2024-03-08T11:46:34;23.37;;;13.17;;
18376;SDS011;9315;52.624;13.544;2024-03-08T11:49:01;20.17;;;11.60;;
18376;SDS011;9315;52.624;13.544;2024-03-08T11:51:30;20.77;;;11.90;;
18376;SDS011;9315;52.624;13.544;2024-03-08T11:53:58;22.30;;;13.33;;
18376;SDS011;9315;52.624;13.544;2024-03-08T11:56:26;24.20;;;13.17;;
18376;SDS011;9315;52.624;13.544;2024-03-08T11:58:54;21.13;;;12.27;;
18376;SDS011;9315;52.624;13.544;2024-03-08T12:01:27;24.80;;;13.97;;
18376;SDS011;9315;52.624;13.544;2024-03-08T12:03:57;24.47;;;15.00;;
18376;SDS011;9315;52.624;13.544;2024-03-08T12:06:27;24.93;;;14.67;;
18376;SDS011;9315;52.624;13.544;2024-03-08T12:09:04;24.30;;;14.00;;
18376;SDS011;9315;52.624;13.544;2024-03-08T12:11:39;24.77;;;14.33;;
18376;SDS011;9315;52.624;13.544;2024-03-08T12:14:07;24.90;;;14.33;;
18376;SDS011;9315;52.624;13.544;2024-03-08T12:16:36;22.47;;;14.10;;
18376;SDS011;9315;52.624;13.544;2024-03-08T12:19:04;24.50;;;13.73;;
18376;SDS011;9315;52.624;13.544;2024-03-08T12:21:32;22.73;;;13.40;;
18376;SDS011;9315;52.624;13.544;2024-03-08T12:24:10;24.27;;;14.17;;
18376;SDS011;9315;52.624;13.544;2024-03-08T12:26:40;22.20;;;12.83;;
18376;SDS011;9315;52.624;13.544;2024-03-08T12:29:18;23.60;;;13.43;;
18376;SDS011;9315;52.624;13.544;2024-03-08T12:31:55;23.90;;;13.83;;
18376;SDS011;9315;52.624;13.544;2024-03-08T12:34:28;21.87;;;13.27;;
18376;SDS011;9315;52.624;13.544;2024-03-08T12:36:55;22.70;;;13.90;;
18376;SDS011;9315;52.624;13.544;2024-03-08T12:39:23;23.57;;;14.00;;
18376;SDS011;9315;52.624;13.544;2024-03-08T12:41:54;24.27;;;13.73;;
18376;SDS011;9315;52.624;13.544;2024-03-08T12:44:23;21.50;;;12.83;;
18376;SDS011;9315;52.624;13.544;2024-03-08T12:46:52;19.67;;;12.50;;
18376;SDS011;9315;52.624;13.544;2024-03-08T12:49:20;23.03;;;13.03;;
18376;SDS011;9315;52.624;13.544;2024-03-08T12:51:49;19.53;;;13.00;;
18376;SDS011;9315;52.624;13.544;2024-03-08T12:54:19;21.13;;;13.20;;
18376;SDS011;9315;52.624;13.544;2024-03-08T12:56:50;20.43;;;13.03;;
18376;SDS011;9315;52.624;13.544;2024-03-08T12:59:21;21.60;;;13.80;;
18376;SDS011;9315;52.624;13.544;2024-03-08T13:01:50;20.83;;;12.73;;
18376;SDS011;9315;52.624;13.544;2024-03-08T13:04:19;21.83;;;13.40;;
18376;SDS011;9315;52.624;13.544;2024-03-08T13:06:48;22.13;;;13.37;;
18376;SDS011;9315;52.624;13.544;2024-03-08T13:09:20;23.63;;;14.33;;
18376;SDS011;9315;52.624;13.544;2024-03-08T13:11:49;22.57;;;13.90;;
18376;SDS011;9315;52.624;13.544;2024-03-08T13:14:16;20.27;;;13.13;;
18376;SDS011;9315;52.624;13.544;2024-03-08T13:16:44;21.40;;;13.53;;
18376;SDS011;9315;52.624;13.544;2024-03-08T13:19:15;20.43;;;13.60;;
18376;SDS011;9315;52.624;13.544;2024-03-08T13:21:43;23.50;;;14.27;;
18376;SDS011;9315;52.624;13.544;2024-03-08T13:24:16;21.80;;;14.83;;
18376;SDS011;9315;52.624;13.544;2024-03-08T13:26:46;20.27;;;12.73;;
18376;SDS011;9315;52.624;13.544;2024-03-08T13:29:14;19.23;;;12.83;;
18376;SDS011;9315;52.624;13.544;2024-03-08T13:31:41;19.30;;;13.77;;
18376;SDS011;9315;52.624;13.544;2024-03-08T13:34:11;22.47;;;14.77;;
18376;SDS011;9315;52.624;13.544;2024-03-08T13:36:41;23.53;;;14.60;;
18376;SDS011;9315;52.624;13.544;2024-03-08T13:39:11;20.37;;;13.33;;
18376;SDS011;9315;52.624;13.544;2024-03-08T13:41:47;23.03;;;14.50;;
18376;SDS011;9315;52.624;13.544;2024-03-08T13:44:16;20.83;;;12.80;;
18376;SDS011;9315;52.624;13.544;2024-03-08T13:46:46;21.47;;;13.40;;
18376;SDS011;9315;52.624;13.544;2024-03-08T13:49:18;23.30;;;13.73;;
18376;SDS011;9315;52.624;13.544;2024-03-08T13:51:46;25.23;;;14.80;;
18376;SDS011;9315;52.624;13.544;2024-03-08T13:54:13;21.77;;;13.60;;
18376;SDS011;9315;52.624;13.544;2024-03-08T13:56:42;20.10;;;12.83;;
18376;SDS011;9315;52.624;13.544;2024-03-08T13:59:11;21.07;;;12.73;;
18376;SDS011;9315;52.624;13.544;2024-03-08T14:01:40;21.20;;;13.17;;
18376;SDS011;9315;52.624;13.544;2024-03-08T14:04:07;19.77;;;13.07;;
18376;SDS011;9315;52.624;13.544;2024-03-08T14:06:35;20.57;;;13.13;;
18376;SDS011;9315;52.624;13.544;2024-03-08T14:09:02;21.03;;;13.80;;
18376;SDS011;9315;52.624;13.544;2024-03-08T14:11:30;18.53;;;12.73;;
18376;SDS011;9315;52.624;13.544;2024-03-08T14:13:57;18.60;;;12.70;;
18376;SDS011;9315;52.624;13.544;2024-03-08T14:16:25;19.63;;;12.83;;
18376;SDS011;9315;52.624;13.544;2024-03-08T14:18:52;20.83;;;13.13;;
18376;SDS011;9315;52.624;13.544;2024-03-08T14:21:20;19.73;;;13.10;;
18376;SDS011;9315;52.624;13.544;2024-03-08T14:23:49;21.20;;;12.90;;
18376;SDS011;9315;52.624;13.544;2024-03-08T14:26:18;20.73;;;12.33;;
18376;SDS011;9315;52.624;13.544;2024-03-08T14:28:47;17.40;;;11.67;;
18376;SDS011;9315;52.624;13.544;2024-03-08T14:31:18;17.20;;;11.70;;
18376;SDS011;9315;52.624;13.544;2024-03-08T14:33:46;19.90;;;12.73;;
18376;SDS011;9315;52.624;13.544;2024-03-08T14:36:15;19.10;;;12.43;;
18376;SDS011;9315;52.624;13.544;2024-03-08T14:38:46;18.80;;;12.50;;
18376;SDS011;9315;52.624;13.544;2024-03-08T14:41:14;19.00;;;12.13;;
18376;SDS011;9315;52.624;13.544;2024-03-08T14:43:42;20.30;;;13.00;;
18376;SDS011;9315;52.624;13.544;2024-03-08T14:46:11;19.77;;;12.63;;